Time;durP1;ratioP1;P1;durP2;ratioP2;P2;SDS_P1;SDS_P2;PMS_P1;PMS_P2;Temp;Humidity;BMP_temperature;BMP_pressure;BME280_temperature;BME280_humidity;BME280_pressure;Samples;Min_cycle;Max_cycle;Signal;HPM_P1;HPM_P2
2022/12/17 13:07:19;;;;;;;;;59.00;45.25;;;;;9.94;46.21;102143.16;4999928;28;45468;-77
2022/12/17 13:09:49;;;;;;;;;57.50;44.75;;;;;9.88;46.55;102128.16;4980230;28;47284;-76
2022/12/17 13:12:23;;;;;;;;;60.50;47.00;;;;;9.96;46.64;102135.31;4994254;28;45488;-76
2022/12/17 13:14:57;;;;;;;;;56.25;44.75;;;;;10.08;46.63;102130.34;4997463;28;45499;-75
2022/12/17 13:17:34;;;;;;;;;52.50;40.75;;;;;10.18;46.37;102123.50;4979219;28;45578;-76
2022/12/17 13:20:23;;;;;;;;;56.00;45.75;;;;;10.21;45.88;102126.19;4996172;28;45687;-75
2022/12/17 13:22:51;;;;;;;;;61.25;47.00;;;;;10.04;45.94;102121.47;4981535;28;45799;-77
2022/12/17 13:25:22;;;;;;;;;59.25;45.50;;;;;10.01;45.77;102124.03;4981409;28;45782;-75
2022/12/17 13:27:49;;;;;;;;;53.00;44.00;;;;;9.94;45.35;102124.75;4982065;28;45550;-74
2022/12/17 13:30:29;;;;;;;;;58.00;45.75;;;;;10.08;45.94;102128.59;4991209;28;47467;-75
2022/12/17 13:33:17;;;;;;;;;60.50;45.50;;;;;10.79;45.64;102136.09;4996807;28;45431;-77
2022/12/17 13:35:51;;;;;;;;;55.75;44.75;;;;;11.43;45.07;102130.13;4998966;28;45547;-75
2022/12/17 13:38:23;;;;;;;;;56.00;44.00;;;;;11.67;44.19;102126.97;4993943;28;45539;-75
2022/12/17 13:41:03;;;;;;;;;57.50;44.00;;;;;11.75;44.08;102119.16;4979822;28;47676;-78
2022/12/17 13:43:39;;;;;;;;;57.25;45.00;;;;;12.03;43.89;102123.06;4997548;28;45389;-77
2022/12/17 13:46:05;;;;;;;;;57.00;47.00;;;;;12.39;43.68;102121.75;4978388;28;45380;-77
2022/12/17 13:48:30;;;;;;;;;56.00;43.00;;;;;12.67;42.76;102117.63;4980186;28;45617;-78
2022/12/17 13:51:01;;;;;;;;;56.75;46.75;;;;;12.85;42.29;102108.97;4968821;28;45888;-80
2022/12/17 13:53:29;;;;;;;;;52.25;42.00;;;;;12.88;41.78;102104.59;4981692;28;45295;-78
2022/12/17 13:55:56;;;;;;;;;49.50;39.00;;;;;12.68;40.86;102100.91;4978710;28;45458;-77
2022/12/17 13:58:30;;;;;;;;;58.00;47.00;;;;;12.41;41.18;102086.56;4999069;28;45479;-80
2022/12/17 14:01:13;;;;;;;;;53.25;41.25;;;;;12.24;41.01;102111.88;4979578;28;46997;-80
2022/12/17 14:03:47;;;;;;;;;58.00;45.00;;;;;12.08;41.28;102109.09;4981085;28;46209;-79
2022/12/17 14:06:13;;;;;;;;;57.25;42.75;;;;;11.90;41.12;102117.66;5001377;28;45724;-79
2022/12/17 14:08:39;;;;;;;;;51.50;42.75;;;;;11.54;41.36;102117.97;4968937;28;45183;-79
2022/12/17 14:13:49;;;;;;;;;52.75;41.50;;;;;10.66;41.52;102115.69;4993368;28;45368;-79
2022/12/17 14:16:16;;;;;;;;;52.50;42.25;;;;;10.23;42.12;102132.38;5001194;28;45440;-78
2022/12/17 14:18:54;;;;;;;;;56.25;45.25;;;;;9.65;42.14;102126.75;4997643;28;45491;-78
2022/12/17 14:21:24;;;;;;;;;49.75;38.00;;;;;9.19;42.21;102126.56;4999708;28;45485;-81
2022/12/17 14:23:51;;;;;;;;;50.25;40.00;;;;;8.78;42.63;102134.31;4982988;28;45330;-78
2022/12/17 14:26:17;;;;;;;;;48.00;39.50;;;;;8.39;43.03;102139.38;4997693;28;45764;-78
2022/12/17 14:28:51;;;;;;;;;44.75;37.00;;;;;8.05;43.27;102146.25;4991110;28;45925;-78
2022/12/17 14:31:26;;;;;;;;;51.25;42.50;;;;;7.75;44.01;102140.97;5000081;28;45564;-78
2022/12/17 14:34:05;;;;;;;;;45.75;37.00;;;;;7.45;44.67;102140.91;4998016;28;45803;-78
2022/12/17 14:36:33;;;;;;;;;43.75;34.75;;;;;7.10;44.76;102127.59;4982091;28;45445;-78
2022/12/17 14:39:02;;;;;;;;;57.00;44.75;;;;;6.94;45.49;102149.75;4995327;28;45334;-79
2022/12/17 14:44:24;;;;;;;;;50.50;43.00;;;;;6.44;46.18;102150.59;5009241;28;45290;-79
2022/12/17 14:46:52;;;;;;;;;54.75;43.75;;;;;6.22;46.61;102147.19;4980459;28;45333;-79
2022/12/17 14:49:20;;;;;;;;;60.50;44.00;;;;;6.08;47.10;102144.09;4997193;28;45294;-78
2022/12/17 14:51:47;;;;;;;;;56.75;46.00;;;;;5.91;47.55;102134.69;4985950;28;48410;-78
2022/12/17 14:54:12;;;;;;;;;63.50;45.00;;;;;5.79;47.84;102142.06;5006018;28;45383;-80
2022/12/17 14:56:40;;;;;;;;;51.00;41.50;;;;;5.60;48.07;102125.69;5000398;28;45348;-79
2022/12/17 14:59:24;;;;;;;;;51.25;40.75;;;;;5.48;48.20;102125.19;5010945;28;45369;-78
2022/12/17 15:01:53;;;;;;;;;52.00;42.25;;;;;5.33;48.59;102125.47;4978348;28;47558;-78
2022/12/17 15:04:20;;;;;;;;;54.00;44.25;;;;;5.15;48.76;102133.47;4982869;28;45665;-81
2022/12/17 15:06:46;;;;;;;;;55.00;42.75;;;;;5.01;49.43;102132.91;4992438;28;45369;-78
2022/12/17 15:09:12;;;;;;;;;53.75;43.25;;;;;4.89;49.51;102137.59;4989708;28;45795;-77
2022/12/17 15:11:38;;;;;;;;;53.00;42.25;;;;;4.65;50.07;102121.78;5004471;28;46095;-80
2022/12/17 15:14:03;;;;;;;;;54.00;44.00;;;;;4.57;49.85;102142.34;5004277;28;45372;-78
2022/12/17 15:16:29;;;;;;;;;59.00;46.50;;;;;4.41;50.15;102135.56;4994633;28;45327;-78
2022/12/17 15:18:54;;;;;;;;;55.25;44.50;;;;;4.27;50.41;102125.34;4986333;28;45378;-81
2022/12/17 15:21:20;;;;;;;;;68.75;51.00;;;;;4.19;50.95;102119.78;5001084;28;45349;-79
2022/12/17 15:23:46;;;;;;;;;62.25;49.25;;;;;4.05;51.18;102108.75;5005403;28;45452;-78
2022/12/17 15:26:14;;;;;;;;;55.75;47.00;;;;;3.94;51.06;102123.91;4991327;28;45470;-76
2022/12/17 15:28:43;;;;;;;;;56.00;45.00;;;;;3.81;51.98;102131.97;4990129;28;45479;-76
2022/12/17 15:31:11;;;;;;;;;62.75;49.75;;;;;3.76;52.00;102139.56;5009367;28;47491;-79
2022/12/17 15:33:36;;;;;;;;;56.25;43.00;;;;;3.65;52.00;102134.69;5009854;28;46309;-77
2022/12/17 15:36:02;;;;;;;;;69.50;53.00;;;;;3.56;52.42;102140.38;5004478;28;45349;-78
2022/12/17 15:38:28;;;;;;;;;69.50;53.25;;;;;3.51;52.88;102154.88;5008582;28;45262;-80
2022/12/17 15:40:53;;;;;;;;;61.50;48.00;;;;;3.46;53.07;102157.25;5011333;28;45316;-78
2022/12/17 15:43:19;;;;;;;;;42.50;34.50;;;;;3.37;52.35;102161.13;5005293;28;46265;-79
2022/12/17 15:45:48;;;;;;;;;36.50;31.00;;;;;3.28;52.32;102161.56;4981193;28;45406;-78
2022/12/17 15:48:18;;;;;;;;;30.25;27.50;;;;;3.16;52.26;102160.97;5005247;28;45811;-78
2022/12/17 15:50:43;;;;;;;;;35.00;30.50;;;;;3.05;51.91;102157.84;5008263;28;46190;-79
2022/12/17 15:53:09;;;;;;;;;35.75;31.50;;;;;2.91;52.32;102151.94;4987697;28;45277;-80
2022/12/17 15:55:35;;;;;;;;;34.50;30.25;;;;;2.93;52.21;102176.31;5003559;28;45322;-83
2022/12/17 15:58:05;;;;;;;;;40.00;32.25;;;;;2.77;52.51;102158.16;5015726;28;45349;-79
2022/12/17 16:00:31;;;;;;;;;51.50;41.50;;;;;2.70;52.91;102169.06;5009313;28;45631;-79
2022/12/17 16:02:56;;;;;;;;;56.00;43.75;;;;;2.62;52.92;102174.78;5001080;28;45539;-78
2022/12/17 16:05:22;;;;;;;;;53.25;43.75;;;;;2.68;53.53;102188.91;4997864;28;45538;-80
2022/12/17 16:07:48;;;;;;;;;54.00;44.00;;;;;2.63;53.45;102175.66;4987832;28;46271;-80
2022/12/17 16:10:14;;;;;;;;;53.25;43.50;;;;;2.43;53.96;102138.22;4988663;28;46729;-80
2022/12/17 16:12:39;;;;;;;;;57.25;45.50;;;;;2.52;54.04;102175.09;4997589;28;45409;-80
2022/12/17 16:15:09;;;;;;;;;70.50;56.50;;;;;2.41;54.55;102174.53;5005424;28;45291;-81
2022/12/17 16:17:35;;;;;;;;;70.00;52.00;;;;;2.30;54.67;102175.69;4980594;28;45396;-80
2022/12/17 16:20:01;;;;;;;;;81.75;61.25;;;;;2.25;54.91;102168.47;4998767;28;46818;-80
2022/12/17 16:22:27;;;;;;;;;77.00;61.25;;;;;2.24;54.73;102169.25;4999042;28;45898;-80
2022/12/17 16:24:52;;;;;;;;;81.50;61.25;;;;;2.17;54.99;102163.75;5006884;28;45313;-79
2022/12/17 16:27:18;;;;;;;;;61.25;50.25;;;;;2.10;55.11;102164.22;5000044;28;45493;-79
2022/12/17 16:29:46;;;;;;;;;67.50;52.25;;;;;2.11;54.92;102172.91;4984319;28;47120;-79
2022/12/17 16:32:12;;;;;;;;;71.50;57.75;;;;;2.05;55.18;102180.38;5013084;28;45375;-79
2022/12/17 16:34:41;;;;;;;;;75.50;58.25;;;;;1.95;55.87;102165.97;4979887;28;45731;-77
2022/12/17 16:37:07;;;;;;;;;76.75;62.00;;;;;1.93;56.12;102189.28;4979135;28;45774;-78
2022/12/17 16:39:32;;;;;;;;;79.75;61.50;;;;;1.78;56.04;102178.06;4987952;28;48194;-77
2022/12/17 16:41:58;;;;;;;;;84.25;65.00;;;;;1.74;56.71;102177.00;4987703;28;45650;-78
2022/12/17 16:44:23;;;;;;;;;93.00;70.67;;;;;1.79;57.02;102191.91;5003529;28;45575;-78
2022/12/17 16:46:50;;;;;;;;;92.67;72.00;;;;;1.69;56.94;102173.25;5013292;28;45465;-77
2022/12/17 16:49:19;;;;;;;;;88.50;68.50;;;;;1.70;56.97;102179.34;5003050;28;45430;-77
2022/12/17 16:51:46;;;;;;;;;72.25;57.00;;;;;1.65;57.21;102160.91;5002752;28;45709;-77
2022/12/17 16:54:15;;;;;;;;;78.75;61.00;;;;;1.60;57.21;102169.25;4977320;28;45397;-78
2022/12/17 16:56:42;;;;;;;;;84.50;62.75;;;;;1.57;56.87;102169.97;4981233;28;45462;-78
2022/12/17 16:59:09;;;;;;;;;79.25;61.00;;;;;1.37;57.52;102139.44;4988809;28;47332;-78
2022/12/17 17:01:36;;;;;;;;;83.75;63.00;;;;;1.42;57.41;102150.97;4984550;28;45987;-78
2022/12/17 17:04:04;;;;;;;;;71.00;55.75;;;;;1.42;57.61;102170.03;4987979;28;45564;-77
2022/12/17 17:06:29;;;;;;;;;71.75;56.25;;;;;1.42;56.95;102179.50;4993112;28;45608;-77
2022/12/17 17:08:54;;;;;;;;;55.00;45.00;;;;;1.32;57.08;102172.91;4968742;28;47305;-77
2022/12/17 17:11:23;;;;;;;;;54.00;42.00;;;;;1.25;57.09;102161.25;4983496;28;45666;-78
2022/12/17 17:13:51;;;;;;;;;40.00;37.50;;;;;1.18;57.16;102148.78;4986883;28;45555;-78
2022/12/17 17:16:18;;;;;;;;;57.75;48.00;;;;;1.26;57.39;102160.47;4977509;28;45769;-77
2022/12/17 17:18:44;;;;;;;;;67.00;52.50;;;;;1.15;57.82;102161.56;4993577;28;48347;-77
2022/12/17 17:21:18;;;;;;;;;68.50;53.75;;;;;1.22;58.03;102173.16;4994506;28;45683;-77
2022/12/17 17:23:52;;;;;;;;;67.50;53.25;;;;;1.19;58.42;102170.41;4993108;28;45436;-77
2022/12/17 17:26:18;;;;;;;;;68.50;52.25;;;;;1.17;58.26;102162.53;4981157;28;46059;-77
2022/12/17 17:28:44;;;;;;;;;70.50;55.25;;;;;1.10;58.63;102175.97;4996260;28;45504;-76
2022/12/17 17:31:12;;;;;;;;;74.25;57.00;;;;;1.04;58.97;102181.69;5001094;28;45915;-76
2022/12/17 17:33:41;;;;;;;;;65.75;53.25;;;;;1.07;59.07;102201.72;4988914;28;46409;-76
2022/12/17 17:36:08;;;;;;;;;74.50;58.00;;;;;1.04;59.35;102197.25;5008242;28;45573;-77
2022/12/17 17:38:36;;;;;;;;;78.50;63.25;;;;;0.95;59.13;102178.56;4992436;28;48373;-80
2022/12/17 17:41:03;;;;;;;;;84.00;66.00;;;;;0.95;59.86;102198.41;5006831;28;45793;-76
2022/12/17 17:43:29;;;;;;;;;77.50;60.50;;;;;0.92;59.41;102195.63;5003429;28;45762;-76
2022/12/17 17:46:06;;;;;;;;;82.25;64.25;;;;;0.94;59.86;102209.59;5002837;28;45502;-76
2022/12/17 17:48:33;;;;;;;;;83.25;63.75;;;;;0.91;60.17;102197.34;5010052;28;47265;-77
2022/12/17 17:51:03;;;;;;;;;85.25;66.50;;;;;0.87;60.00;102180.69;5000756;28;45903;-76
2022/12/17 17:53:28;;;;;;;;;82.00;63.75;;;;;0.83;60.17;102181.31;4980519;28;45574;-77
2022/12/17 17:56:00;;;;;;;;;80.75;63.25;;;;;0.77;60.09;102170.56;4998920;28;45478;-76
2022/12/17 17:58:25;;;;;;;;;81.75;63.00;;;;;0.78;60.52;102176.69;4985687;28;48017;-76
2022/12/17 18:00:51;;;;;;;;;82.00;61.00;;;;;0.78;60.19;102176.69;4987954;28;45546;-79
2022/12/17 18:03:16;;;;;;;;;73.25;61.25;;;;;0.72;60.61;102172.00;4989869;28;45670;-75
2022/12/17 18:05:42;;;;;;;;;79.75;61.25;;;;;0.77;60.13;102174.88;4988981;28;45769;-77
2022/12/17 18:08:08;;;;;;;;;85.25;64.00;;;;;0.69;60.66;102164.06;5008791;28;46979;-76
2022/12/17 18:10:33;;;;;;;;;91.75;69.50;;;;;0.63;60.95;102156.81;4983745;28;45669;-76
2022/12/17 18:15:44;;;;;;;;;74.25;60.25;;;;;0.59;60.77;102157.44;4944925;28;45755;-77
2022/12/17 18:18:09;;;;;;;;;78.00;57.75;;;;;0.59;60.84;102159.16;4981053;28;45674;-77
2022/12/17 18:20:35;;;;;;;;;77.75;61.50;;;;;0.58;60.78;102167.72;4993348;28;45657;-77
2022/12/17 18:23:00;;;;;;;;;77.75;59.50;;;;;0.54;61.27;102165.75;4979188;28;45634;-77
2022/12/17 18:25:25;;;;;;;;;72.00;57.25;;;;;0.50;61.03;102159.47;4997837;28;45564;-76
2022/12/17 18:27:52;;;;;;;;;76.00;60.00;;;;;0.56;60.99;102170.22;4980488;28;46453;-77
2022/12/17 18:30:18;;;;;;;;;76.00;57.25;;;;;0.54;60.92;102164.06;4980638;28;45686;-78
2022/12/17 18:32:44;;;;;;;;;77.25;60.75;;;;;0.47;61.01;102156.69;4976670;28;45568;-77
2022/12/17 18:35:10;;;;;;;;;82.25;63.25;;;;;0.50;61.47;102168.94;5003106;28;46006;-77
2022/12/17 18:37:39;;;;;;;;;74.50;57.75;;;;;0.46;61.03;102188.59;4979998;28;47937;-77
2022/12/17 18:40:05;;;;;;;;;78.50;61.25;;;;;0.42;61.43;102189.19;4994812;28;45607;-79
2022/12/17 18:45:15;;;;;;;;;71.75;58.50;;;;;0.51;61.76;102204.41;4967620;28;45506;-78
2022/12/17 18:47:43;;;;;;;;;74.75;58.25;;;;;0.41;61.54;102184.84;4981942;28;45451;-78
2022/12/17 18:50:09;;;;;;;;;82.00;62.50;;;;;0.50;61.77;102213.88;4990888;28;45426;-78
2022/12/17 18:52:35;;;;;;;;;84.75;65.50;;;;;0.46;61.79;102209.31;4989997;28;45872;-78
2022/12/17 18:55:00;;;;;;;;;88.00;67.75;;;;;0.38;61.95;102198.50;4978340;28;45940;-76
2022/12/17 18:57:25;;;;;;;;;95.00;73.00;;;;;0.38;61.74;102201.09;4986694;28;46731;-77
2022/12/17 18:59:54;;;;;;;;;90.67;70.67;;;;;0.41;61.81;102208.16;4988360;28;45547;-77
2022/12/17 19:02:19;;;;;;;;;86.75;68.50;;;;;0.48;61.77;102218.06;4982616;28;45563;-77
2022/12/17 19:04:45;;;;;;;;;81.75;64.75;;;;;0.47;62.12;102218.88;4988977;28;45516;-77
2022/12/17 19:07:10;;;;;;;;;83.00;65.50;;;;;0.46;61.69;102213.63;4977082;28;47598;-78
2022/12/17 19:09:38;;;;;;;;;86.75;66.75;;;;;0.42;61.87;102207.34;4983265;28;45821;-80
2022/12/17 19:12:05;;;;;;;;;86.67;68.33;;;;;0.41;61.97;102214.22;4991658;28;45439;-78
2022/12/17 19:14:31;;;;;;;;;86.00;68.00;;;;;0.40;62.63;102215.03;4982149;28;45591;-77
2022/12/17 19:16:57;;;;;;;;;86.75;64.25;;;;;0.33;62.32;102197.31;5010052;28;45831;-77
2022/12/17 19:19:23;;;;;;;;;87.75;66.50;;;;;0.33;62.13;102207.69;4987214;28;45554;-76
2022/12/17 19:21:50;;;;;;;;;85.33;67.00;;;;;0.24;62.52;102198.44;4984892;28;45485;-79
2022/12/17 19:24:18;;;;;;;;;86.75;66.75;;;;;0.32;62.00;102211.09;4995247;28;45767;-77
2022/12/17 19:26:43;;;;;;;;;79.75;65.00;;;;;0.23;62.43;102202.72;5007179;28;45828;-77
2022/12/17 19:29:13;;;;;;;;;88.00;66.50;;;;;0.34;62.10;102216.34;4978236;28;45351;-78
2022/12/17 19:31:40;;;;;;;;;90.25;68.00;;;;;0.26;62.40;102202.03;4981078;28;45528;-76
2022/12/17 19:34:08;;;;;;;;;88.50;68.50;;;;;0.21;62.22;102193.97;4997728;28;46170;-77
2022/12/17 19:36:35;;;;;;;;;76.50;61.25;;;;;0.27;62.54;102204.72;4983472;28;47772;-77
2022/12/17 19:39:04;;;;;;;;;80.00;62.50;;;;;0.24;62.30;102188.06;4996824;28;45480;-77
2022/12/17 19:41:31;;;;;;;;;80.00;63.75;;;;;0.20;62.13;102181.81;4992047;28;45648;-77
2022/12/17 19:44:08;;;;;;;;;78.25;61.75;;;;;0.22;62.33;102199.25;5003261;28;45830;-77
2022/12/17 19:46:35;;;;;;;;;76.50;63.50;;;;;0.10;62.16;102182.94;4993201;28;45515;-76
2022/12/17 19:49:01;;;;;;;;;87.25;65.00;;;;;0.06;62.02;102178.41;4977237;28;46356;-77
2022/12/17 19:51:29;;;;;;;;;82.50;64.00;;;;;0.20;61.82;102208.59;4978271;28;45660;-77
2022/12/17 19:53:55;;;;;;;;;80.00;61.50;;;;;0.17;62.45;102211.00;4975150;28;45815;-76
2022/12/17 19:56:23;;;;;;;;;81.75;64.75;;;;;0.09;62.10;102198.41;4991695;28;46683;-77
2022/12/17 19:58:52;;;;;;;;;80.50;61.25;;;;;0.01;62.19;102186.69;5000062;28;45872;-77
2022/12/17 20:01:26;;;;;;;;;86.25;64.50;;;;;0.18;62.05;102230.91;5010073;28;45605;-77
2022/12/17 20:03:53;;;;;;;;;79.00;61.50;;;;;0.20;62.55;102228.44;4979304;28;45554;-78
2022/12/17 20:06:25;;;;;;;;;80.00;61.50;;;;;0.21;62.63;102225.97;5003768;28;46122;-77
2022/12/17 20:08:50;;;;;;;;;79.50;64.00;;;;;0.21;62.14;102215.59;5004775;28;45555;-78
2022/12/17 20:11:31;;;;;;;;;78.25;62.75;;;;;0.17;62.36;102210.13;5007349;28;45392;-78
2022/12/17 20:14:22;;;;;;;;;71.50;56.50;;;;;0.21;61.86;102222.44;5016015;28;45467;-78
2022/12/17 20:16:55;;;;;;;;;71.00;59.00;;;;;0.24;61.98;102224.34;4985424;28;48111;-79
2022/12/17 20:19:24;;;;;;;;;67.50;54.50;;;;;0.34;61.86;102242.25;5014113;28;45379;-78
2022/12/17 20:21:51;;;;;;;;;71.50;55.25;;;;;0.24;61.51;102234.69;4995330;28;46049;-78
2022/12/17 20:24:17;;;;;;;;;73.50;58.50;;;;;0.32;61.63;102236.97;4980732;28;45590;-79
2022/12/17 20:26:44;;;;;;;;;72.25;59.00;;;;;0.28;61.50;102245.34;4996717;28;47143;-78
2022/12/17 20:29:10;;;;;;;;;80.25;62.00;;;;;0.26;61.56;102248.63;4994796;28;44783;-77
2022/12/17 20:31:36;;;;;;;;;72.75;59.00;;;;;0.27;61.07;102253.00;5007550;28;45417;-78
2022/12/17 20:34:05;;;;;;;;;82.25;61.75;;;;;0.16;62.05;102234.22;5014531;28;45502;-78
2022/12/17 20:36:31;;;;;;;;;82.50;60.75;;;;;0.15;61.65;102225.56;4998886;28;47723;-78
2022/12/17 20:38:57;;;;;;;;;79.00;63.00;;;;;0.21;61.33;102246.69;5013366;28;45181;-78
2022/12/17 20:41:25;;;;;;;;;76.75;59.75;;;;;0.18;61.31;102246.44;4996358;28;45616;-77
2022/12/17 20:43:51;;;;;;;;;68.75;51.75;;;;;0.16;61.36;102240.31;4996648;28;45571;-78
2022/12/17 20:46:19;;;;;;;;;70.50;55.25;;;;;0.11;61.28;102235.66;5000035;28;45736;-78
2022/12/17 20:48:45;;;;;;;;;76.00;61.00;;;;;0.22;61.29;102253.63;5007255;28;45774;-77
2022/12/17 20:51:16;;;;;;;;;79.00;62.00;;;;;0.15;61.16;102243.69;4989367;28;45749;-78
2022/12/17 20:53:43;;;;;;;;;73.75;59.00;;;;;0.18;61.61;102253.34;4989056;28;45474;-78
2022/12/17 20:56:11;;;;;;;;;77.75;61.25;;;;;0.07;61.87;102229.34;4989487;28;48243;-79
2022/12/17 20:58:38;;;;;;;;;83.25;62.75;;;;;0.22;61.68;102253.63;4999637;28;45795;-77
2022/12/17 21:01:09;;;;;;;;;77.25;61.50;;;;;0.28;61.69;102260.88;5010031;28;45428;-77
2022/12/17 21:03:35;;;;;;;;;77.50;61.25;;;;;0.29;61.40;102256.59;5015165;28;45537;-76
2022/12/17 21:06:10;;;;;;;;;81.00;61.25;;;;;0.23;61.36;102251.94;5016153;28;46456;-76
2022/12/17 21:08:38;;;;;;;;;76.75;61.00;;;;;0.32;61.11;102262.88;5004466;28;45698;-76
2022/12/17 21:11:05;;;;;;;;;76.00;60.75;;;;;0.28;61.25;102268.66;4990347;28;45523;-76
2022/12/17 21:13:30;;;;;;;;;79.00;62.00;;;;;0.24;61.30;102253.72;5007810;28;45581;-76
2022/12/17 21:16:02;;;;;;;;;80.00;62.25;;;;;0.34;61.68;102266.44;5016764;28;46531;-76
2022/12/17 21:18:29;;;;;;;;;81.00;63.00;;;;;0.37;61.54;102263.16;5017715;28;46449;-76
2022/12/17 21:20:59;;;;;;;;;79.75;60.50;;;;;0.39;62.09;102270.22;4983810;28;45453;-76
2022/12/17 21:23:27;;;;;;;;;73.50;58.75;;;;;0.34;61.60;102239.66;4987846;28;45763;-78
2022/12/17 21:26:00;;;;;;;;;79.75;62.50;;;;;0.35;61.46;102225.91;4988681;28;47073;-76
2022/12/17 21:28:26;;;;;;;;;74.75;61.75;;;;;0.39;61.07;102239.13;4996769;28;45466;-76
2022/12/17 21:30:51;;;;;;;;;77.25;60.25;;;;;0.33;61.32;102223.22;5005279;28;45539;-77
2022/12/17 21:33:16;;;;;;;;;68.75;54.00;;;;;0.36;61.72;102238.94;4987379;28;45868;-76
2022/12/17 21:35:42;;;;;;;;;73.00;56.75;;;;;0.23;61.28;102205.31;5012932;28;45685;-76
2022/12/17 21:38:07;;;;;;;;;75.25;58.25;;;;;0.25;61.58;102211.50;4988937;28;46358;-76
2022/12/17 21:40:36;;;;;;;;;73.50;55.75;;;;;0.29;61.86;102222.94;5012998;28;45693;-76
2022/12/17 21:43:01;;;;;;;;;66.75;53.50;;;;;0.28;61.18;102227.22;5007900;28;45656;-78
2022/12/17 21:45:34;;;;;;;;;67.50;55.50;;;;;0.21;61.46;102212.09;4993169;28;47720;-76
2022/12/17 21:47:59;;;;;;;;;74.50;57.50;;;;;0.32;61.32;102231.81;5005586;28;45521;-76
2022/12/17 21:50:25;;;;;;;;;70.50;55.00;;;;;0.24;61.60;102220.03;4991856;28;45820;-76
2022/12/17 21:52:50;;;;;;;;;65.00;54.00;;;;;0.28;61.88;102215.97;5000212;28;46244;-76
2022/12/17 21:55:15;;;;;;;;;56.75;46.00;;;;;0.26;61.70;102212.38;5014696;28;45704;-76
2022/12/17 21:57:41;;;;;;;;;70.75;58.00;;;;;0.13;61.50;102187.41;5000723;28;45420;-76
2022/12/17 22:00:07;;;;;;;;;67.25;53.75;;;;;0.19;61.93;102191.31;5010142;28;45724;-76
2022/12/17 22:02:33;;;;;;;;;69.50;55.75;;;;;0.26;61.45;102207.19;4994144;28;45607;-76
2022/12/17 22:04:58;;;;;;;;;69.00;55.25;;;;;0.22;61.40;102206.13;5003374;28;46294;-77
2022/12/17 22:07:27;;;;;;;;;62.75;50.25;;;;;0.26;61.89;102208.09;4990555;28;44847;-76
2022/12/17 22:09:52;;;;;;;;;71.00;55.50;;;;;0.20;61.79;102210.31;5003646;28;46018;-76
2022/12/17 22:15:01;;;;;;;;;67.25;53.25;;;;;0.23;62.11;102207.91;5014858;28;45414;-76
2022/12/17 22:17:27;;;;;;;;;65.00;52.25;;;;;0.10;61.72;102184.66;4983377;28;45871;-77
2022/12/17 22:19:52;;;;;;;;;68.25;51.75;;;;;0.15;61.90;102191.00;4998667;28;46194;-76
2022/12/17 22:22:17;;;;;;;;;65.75;50.25;;;;;0.13;62.25;102190.91;5004457;28;45840;-76
2022/12/17 22:24:43;;;;;;;;;70.00;54.75;;;;;0.19;61.98;102205.94;4994608;28;46365;-77
2022/12/17 22:27:08;;;;;;;;;71.00;56.50;;;;;0.16;61.92;102204.06;5005436;28;45697;-76
2022/12/17 22:35:01;;;;;;;;;58.50;47.50;;;;;0.14;62.09;102210.84;5007119;28;45893;-77
2022/12/17 22:37:27;;;;;;;;;62.00;48.75;;;;;0.10;61.71;102205.34;5009407;28;45551;-77
2022/12/17 22:39:52;;;;;;;;;60.00;49.00;;;;;0.06;61.21;102193.94;4992849;28;45472;-77
2022/12/17 22:45:02;;;;;;;;;55.50;48.00;;;;;-0.01;61.52;102187.47;5008939;28;45923;-77
2022/12/17 22:47:27;;;;;;;;;61.75;49.25;;;;;0.01;62.02;102195.34;4984141;28;45712;-76
2022/12/17 22:49:52;;;;;;;;;59.50;47.25;;;;;-0.01;62.26;102194.34;4990632;28;45776;-76
2022/12/17 22:52:18;;;;;;;;;64.00;49.50;;;;;-0.10;60.93;102176.53;4986313;28;45497;-76
2022/12/17 22:54:43;;;;;;;;;68.25;53.50;;;;;-0.07;61.63;102193.97;5000763;28;46079;-76
2022/12/17 22:57:09;;;;;;;;;53.25;44.25;;;;;-0.09;61.55;102180.91;5007605;28;45444;-77
2022/12/17 22:59:34;;;;;;;;;61.50;45.00;;;;;-0.13;61.86;102186.72;5012728;28;45687;-77
2022/12/17 23:01:59;;;;;;;;;49.50;42.00;;;;;-0.14;61.81;102192.66;4981762;28;45440;-76
2022/12/17 23:04:25;;;;;;;;;64.50;49.25;;;;;-0.19;61.91;102181.13;5005432;28;46964;-76
2022/12/17 23:06:50;;;;;;;;;57.00;45.25;;;;;-0.14;61.98;102192.66;5003837;28;45341;-76
2022/12/17 23:09:18;;;;;;;;;59.75;47.25;;;;;-0.20;61.62;102168.09;5002111;28;45671;-76
2022/12/17 23:11:44;;;;;;;;;61.00;50.50;;;;;-0.24;61.26;102186.03;4985911;28;45728;-76
2022/12/17 23:14:09;;;;;;;;;58.75;48.75;;;;;-0.22;61.96;102186.09;4993596;28;47516;-76
2022/12/17 23:16:37;;;;;;;;;59.25;48.25;;;;;-0.33;61.29;102166.44;4985780;28;45950;-77
2022/12/17 23:19:03;;;;;;;;;66.00;49.75;;;;;-0.33;61.25;102164.72;4990245;28;45688;-76
2022/12/17 23:21:29;;;;;;;;;50.75;43.00;;;;;-0.35;61.51;102176.66;4997330;28;45483;-76
2022/12/17 23:23:56;;;;;;;;;52.25;44.25;;;;;-0.33;61.96;102179.38;5012947;28;46264;-76
2022/12/17 23:26:24;;;;;;;;;61.25;52.75;;;;;-0.33;62.05;102179.38;4997483;28;45461;-76
2022/12/17 23:28:59;;;;;;;;;61.50;51.25;;;;;-0.37;61.79;102172.22;4994031;28;45906;-76
2022/12/17 23:31:32;;;;;;;;;65.00;51.50;;;;;-0.41;61.67;102180.56;5003417;28;45784;-76
2022/12/17 23:33:57;;;;;;;;;67.25;51.00;;;;;-0.40;61.98;102185.84;5003347;28;45424;-76
2022/12/17 23:36:24;;;;;;;;;67.25;47.75;;;;;-0.47;61.68;102187.13;4983149;28;45638;-75
2022/12/17 23:38:51;;;;;;;;;53.50;43.75;;;;;-0.51;62.01;102180.00;4980040;28;45544;-75
2022/12/17 23:41:19;;;;;;;;;62.50;49.50;;;;;-0.52;61.29;102183.34;4999320;28;45383;-75
2022/12/17 23:43:45;;;;;;;;;59.75;46.00;;;;;-0.52;61.61;102188.53;5011935;28;46341;-76
2022/12/17 23:46:11;;;;;;;;;62.75;50.25;;;;;-0.55;61.93;102182.28;5012608;28;45447;-76
2022/12/17 23:48:39;;;;;;;;;68.75;50.25;;;;;-0.56;62.15;102175.28;4994449;28;45538;-76
2022/12/17 23:51:06;;;;;;;;;67.75;49.25;;;;;-0.58;62.20;102182.09;5007940;28;45575;-76
2022/12/17 23:53:32;;;;;;;;;49.00;42.75;;;;;-0.61;61.87;102179.31;4984577;28;48326;-76
2022/12/17 23:56:13;;;;;;;;;59.50;47.00;;;;;-0.62;62.28;102186.16;4988820;28;46486;-76
2022/12/17 23:58:41;;;;;;;;;68.50;49.75;;;;;-0.76;61.86;102166.25;4997279;28;45347;-75
